sensor_id;sensor_type;location;lat;lon;timestamp;P1;durP1;ratioP1;P2;durP2;ratioP2
56824;SDS011;42705;50.326;18.772;2024-01-25T00:04:39;6.10;;;1.70;;
56824;SDS011;42705;50.326;18.772;2024-01-25T00:10:01;8.20;;;2.00;;
56824;SDS011;42705;50.326;18.772;2024-01-25T00:15:23;7.70;;;1.80;;
56824;SDS011;42705;50.326;18.772;2024-01-25T00:20:45;9.40;;;1.90;;
56824;SDS011;42705;50.326;18.772;2024-01-25T00:26:07;10.20;;;1.30;;
56824;SDS011;42705;50.326;18.772;2024-01-25T00:31:29;5.00;;;1.00;;
56824;SDS011;42705;50.326;18.772;2024-01-25T00:36:51;3.30;;;1.10;;
56824;SDS011;42705;50.326;18.772;2024-01-25T00:42:15;5.90;;;1.60;;
56824;SDS011;42705;50.326;18.772;2024-01-25T00:47:37;6.50;;;1.10;;
56824;SDS011;42705;50.326;18.772;2024-01-25T00:53:00;4.90;;;1.10;;
56824;SDS011;42705;50.326;18.772;2024-01-25T00:58:22;7.00;;;1.10;;
56824;SDS011;42705;50.326;18.772;2024-01-25T01:03:44;3.80;;;0.90;;
56824;SDS011;42705;50.326;18.772;2024-01-25T01:09:07;6.50;;;0.70;;
56824;SDS011;42705;50.326;18.772;2024-01-25T01:14:29;6.10;;;1.40;;
56824;SDS011;42705;50.326;18.772;2024-01-25T01:19:51;5.20;;;0.70;;
56824;SDS011;42705;50.326;18.772;2024-01-25T01:25:13;7.80;;;1.20;;
56824;SDS011;42705;50.326;18.772;2024-01-25T01:30:35;6.70;;;1.10;;
56824;SDS011;42705;50.326;18.772;2024-01-25T01:35:57;6.10;;;1.10;;
56824;SDS011;42705;50.326;18.772;2024-01-25T01:41:18;5.70;;;0.70;;
56824;SDS011;42705;50.326;18.772;2024-01-25T01:46:40;6.10;;;0.90;;
56824;SDS011;42705;50.326;18.772;2024-01-25T01:52:04;8.30;;;1.10;;
56824;SDS011;42705;50.326;18.772;2024-01-25T01:57:27;4.60;;;1.20;;
56824;SDS011;42705;50.326;18.772;2024-01-25T02:02:50;5.40;;;0.90;;
56824;SDS011;42705;50.326;18.772;2024-01-25T02:13:35;8.10;;;1.00;;
56824;SDS011;42705;50.326;18.772;2024-01-25T02:18:57;4.90;;;0.70;;
56824;SDS011;42705;50.326;18.772;2024-01-25T02:24:19;5.40;;;0.80;;
56824;SDS011;42705;50.326;18.772;2024-01-25T02:29:41;4.50;;;1.00;;
56824;SDS011;42705;50.326;18.772;2024-01-25T02:35:07;6.60;;;1.20;;
56824;SDS011;42705;50.326;18.772;2024-01-25T02:40:29;5.30;;;0.90;;
56824;SDS011;42705;50.326;18.772;2024-01-25T02:45:51;6.20;;;1.20;;
56824;SDS011;42705;50.326;18.772;2024-01-25T02:51:13;8.50;;;0.90;;
56824;SDS011;42705;50.326;18.772;2024-01-25T02:56:36;7.10;;;1.10;;
56824;SDS011;42705;50.326;18.772;2024-01-25T03:01:59;5.10;;;0.80;;
56824;SDS011;42705;50.326;18.772;2024-01-25T03:07:21;5.50;;;1.20;;
56824;SDS011;42705;50.326;18.772;2024-01-25T03:12:42;5.60;;;1.00;;
56824;SDS011;42705;50.326;18.772;2024-01-25T03:18:04;9.40;;;1.90;;
56824;SDS011;42705;50.326;18.772;2024-01-25T03:23:26;7.00;;;1.20;;
56824;SDS011;42705;50.326;18.772;2024-01-25T03:28:48;5.20;;;1.00;;
56824;SDS011;42705;50.326;18.772;2024-01-25T03:34:10;4.20;;;1.00;;
56824;SDS011;42705;50.326;18.772;2024-01-25T03:39:33;10.00;;;1.20;;
56824;SDS011;42705;50.326;18.772;2024-01-25T03:44:55;4.80;;;1.00;;
56824;SDS011;42705;50.326;18.772;2024-01-25T03:50:16;6.90;;;0.90;;
56824;SDS011;42705;50.326;18.772;2024-01-25T03:55:38;6.90;;;0.60;;
56824;SDS011;42705;50.326;18.772;2024-01-25T04:01:00;10.80;;;1.90;;
56824;SDS011;42705;50.326;18.772;2024-01-25T04:06:22;4.30;;;0.80;;
56824;SDS011;42705;50.326;18.772;2024-01-25T04:11:44;8.00;;;1.60;;
56824;SDS011;42705;50.326;18.772;2024-01-25T04:17:06;10.50;;;1.30;;
56824;SDS011;42705;50.326;18.772;2024-01-25T04:22:28;9.70;;;1.10;;
56824;SDS011;42705;50.326;18.772;2024-01-25T04:27:50;5.80;;;0.90;;
56824;SDS011;42705;50.326;18.772;2024-01-25T04:33:12;8.20;;;1.20;;
56824;SDS011;42705;50.326;18.772;2024-01-25T04:38:34;7.80;;;1.10;;
56824;SDS011;42705;50.326;18.772;2024-01-25T04:43:55;3.80;;;0.70;;
56824;SDS011;42705;50.326;18.772;2024-01-25T04:49:17;8.80;;;1.50;;
56824;SDS011;42705;50.326;18.772;2024-01-25T04:54:39;5.70;;;1.60;;
56824;SDS011;42705;50.326;18.772;2024-01-25T05:00:02;5.20;;;0.90;;
56824;SDS011;42705;50.326;18.772;2024-01-25T05:05:25;6.10;;;1.00;;
56824;SDS011;42705;50.326;18.772;2024-01-25T05:10:47;4.30;;;0.70;;
56824;SDS011;42705;50.326;18.772;2024-01-25T05:16:09;6.30;;;0.90;;
56824;SDS011;42705;50.326;18.772;2024-01-25T05:21:31;7.80;;;1.30;;
56824;SDS011;42705;50.326;18.772;2024-01-25T05:26:53;6.10;;;1.30;;
56824;SDS011;42705;50.326;18.772;2024-01-25T05:32:15;7.20;;;1.70;;
56824;SDS011;42705;50.326;18.772;2024-01-25T05:37:37;6.80;;;1.30;;
56824;SDS011;42705;50.326;18.772;2024-01-25T05:42:59;3.50;;;0.90;;
56824;SDS011;42705;50.326;18.772;2024-01-25T05:48:21;7.50;;;1.20;;
56824;SDS011;42705;50.326;18.772;2024-01-25T05:53:43;6.70;;;1.30;;
56824;SDS011;42705;50.326;18.772;2024-01-25T05:59:05;6.90;;;1.20;;
56824;SDS011;42705;50.326;18.772;2024-01-25T06:04:27;7.40;;;1.40;;
56824;SDS011;42705;50.326;18.772;2024-01-25T06:09:48;9.00;;;1.50;;
56824;SDS011;42705;50.326;18.772;2024-01-25T06:15:10;7.30;;;1.30;;
56824;SDS011;42705;50.326;18.772;2024-01-25T06:20:32;7.20;;;1.00;;
56824;SDS011;42705;50.326;18.772;2024-01-25T06:25:54;7.90;;;1.50;;
56824;SDS011;42705;50.326;18.772;2024-01-25T06:31:16;6.50;;;1.00;;
56824;SDS011;42705;50.326;18.772;2024-01-25T06:36:38;9.00;;;1.10;;
56824;SDS011;42705;50.326;18.772;2024-01-25T06:42:01;8.50;;;1.50;;
56824;SDS011;42705;50.326;18.772;2024-01-25T06:47:22;7.70;;;1.00;;
56824;SDS011;42705;50.326;18.772;2024-01-25T06:52:44;4.80;;;0.90;;
56824;SDS011;42705;50.326;18.772;2024-01-25T06:58:06;3.70;;;0.90;;
56824;SDS011;42705;50.326;18.772;2024-01-25T07:03:28;4.20;;;0.90;;
56824;SDS011;42705;50.326;18.772;2024-01-25T07:08:50;4.50;;;0.80;;
56824;SDS011;42705;50.326;18.772;2024-01-25T07:14:12;10.40;;;1.60;;
56824;SDS011;42705;50.326;18.772;2024-01-25T07:19:34;3.80;;;0.70;;
56824;SDS011;42705;50.326;18.772;2024-01-25T07:24:56;9.70;;;0.90;;
56824;SDS011;42705;50.326;18.772;2024-01-25T07:30:18;5.00;;;0.90;;
56824;SDS011;42705;50.326;18.772;2024-01-25T07:35:40;6.00;;;1.00;;
56824;SDS011;42705;50.326;18.772;2024-01-25T07:41:07;5.90;;;1.20;;
56824;SDS011;42705;50.326;18.772;2024-01-25T07:46:28;7.00;;;1.20;;
56824;SDS011;42705;50.326;18.772;2024-01-25T07:51:51;8.40;;;1.40;;
56824;SDS011;42705;50.326;18.772;2024-01-25T07:57:13;6.50;;;2.00;;
56824;SDS011;42705;50.326;18.772;2024-01-25T08:02:35;7.30;;;1.30;;
56824;SDS011;42705;50.326;18.772;2024-01-25T08:07:57;8.70;;;1.30;;
56824;SDS011;42705;50.326;18.772;2024-01-25T08:13:19;9.20;;;1.20;;
56824;SDS011;42705;50.326;18.772;2024-01-25T08:18:41;8.50;;;1.50;;
56824;SDS011;42705;50.326;18.772;2024-01-25T08:24:05;10.10;;;1.70;;
56824;SDS011;42705;50.326;18.772;2024-01-25T08:29:27;7.30;;;1.20;;
56824;SDS011;42705;50.326;18.772;2024-01-25T08:34:49;7.40;;;1.20;;
56824;SDS011;42705;50.326;18.772;2024-01-25T08:40:11;8.10;;;1.40;;
56824;SDS011;42705;50.326;18.772;2024-01-25T08:45:34;9.80;;;1.40;;
56824;SDS011;42705;50.326;18.772;2024-01-25T08:50:56;6.80;;;0.90;;
56824;SDS011;42705;50.326;18.772;2024-01-25T08:56:18;9.90;;;1.50;;
56824;SDS011;42705;50.326;18.772;2024-01-25T09:01:40;5.50;;;1.10;;
56824;SDS011;42705;50.326;18.772;2024-01-25T09:07:02;6.90;;;1.00;;
56824;SDS011;42705;50.326;18.772;2024-01-25T09:12:24;9.60;;;1.70;;
56824;SDS011;42705;50.326;18.772;2024-01-25T09:17:46;7.40;;;1.00;;
56824;SDS011;42705;50.326;18.772;2024-01-25T09:23:07;12.40;;;2.00;;
56824;SDS011;42705;50.326;18.772;2024-01-25T09:28:29;6.00;;;1.30;;
56824;SDS011;42705;50.326;18.772;2024-01-25T09:33:51;12.40;;;2.20;;
56824;SDS011;42705;50.326;18.772;2024-01-25T09:39:13;9.50;;;1.60;;
56824;SDS011;42705;50.326;18.772;2024-01-25T09:44:37;10.80;;;1.50;;
56824;SDS011;42705;50.326;18.772;2024-01-25T09:50:01;9.40;;;1.80;;
56824;SDS011;42705;50.326;18.772;2024-01-25T09:55:26;13.20;;;1.90;;
56824;SDS011;42705;50.326;18.772;2024-01-25T10:00:48;8.80;;;1.60;;
56824;SDS011;42705;50.326;18.772;2024-01-25T10:06:11;10.50;;;1.60;;
56824;SDS011;42705;50.326;18.772;2024-01-25T10:11:34;11.30;;;2.30;;
56824;SDS011;42705;50.326;18.772;2024-01-25T10:16:57;10.90;;;1.90;;
56824;SDS011;42705;50.326;18.772;2024-01-25T10:22:19;5.00;;;1.30;;
56824;SDS011;42705;50.326;18.772;2024-01-25T10:27:41;9.00;;;1.60;;
56824;SDS011;42705;50.326;18.772;2024-01-25T10:33:03;11.30;;;1.50;;
56824;SDS011;42705;50.326;18.772;2024-01-25T10:38:26;11.80;;;2.20;;
56824;SDS011;42705;50.326;18.772;2024-01-25T10:43:48;8.90;;;1.80;;
56824;SDS011;42705;50.326;18.772;2024-01-25T10:49:10;10.70;;;1.80;;
56824;SDS011;42705;50.326;18.772;2024-01-25T10:54:33;7.00;;;1.40;;
56824;SDS011;42705;50.326;18.772;2024-01-25T10:59:55;10.60;;;2.00;;
56824;SDS011;42705;50.326;18.772;2024-01-25T11:05:18;8.30;;;1.10;;
56824;SDS011;42705;50.326;18.772;2024-01-25T11:10:43;7.90;;;1.50;;
56824;SDS011;42705;50.326;18.772;2024-01-25T11:16:15;8.70;;;1.60;;
56824;SDS011;42705;50.326;18.772;2024-01-25T11:21:42;11.40;;;1.60;;
56824;SDS011;42705;50.326;18.772;2024-01-25T11:27:05;7.90;;;2.10;;
56824;SDS011;42705;50.326;18.772;2024-01-25T11:32:27;5.80;;;1.40;;
56824;SDS011;42705;50.326;18.772;2024-01-25T11:37:50;7.10;;;2.30;;
56824;SDS011;42705;50.326;18.772;2024-01-25T11:43:15;4.30;;;1.00;;
56824;SDS011;42705;50.326;18.772;2024-01-25T11:48:40;6.70;;;1.40;;
56824;SDS011;42705;50.326;18.772;2024-01-25T11:54:03;6.60;;;1.10;;
56824;SDS011;42705;50.326;18.772;2024-01-25T11:59:28;7.90;;;1.40;;
56824;SDS011;42705;50.326;18.772;2024-01-25T12:04:50;8.80;;;1.10;;
56824;SDS011;42705;50.326;18.772;2024-01-25T12:10:15;4.80;;;1.40;;
56824;SDS011;42705;50.326;18.772;2024-01-25T12:15:40;8.80;;;1.70;;
56824;SDS011;42705;50.326;18.772;2024-01-25T12:21:03;10.10;;;1.70;;
56824;SDS011;42705;50.326;18.772;2024-01-25T12:26:26;10.60;;;1.80;;
56824;SDS011;42705;50.326;18.772;2024-01-25T12:31:48;8.20;;;1.50;;
56824;SDS011;42705;50.326;18.772;2024-01-25T12:37:10;7.20;;;1.40;;
56824;SDS011;42705;50.326;18.772;2024-01-25T12:42:32;7.30;;;1.40;;
56824;SDS011;42705;50.326;18.772;2024-01-25T12:47:54;8.50;;;1.60;;
56824;SDS011;42705;50.326;18.772;2024-01-25T12:53:16;9.60;;;1.10;;
56824;SDS011;42705;50.326;18.772;2024-01-25T12:58:38;8.20;;;1.40;;
56824;SDS011;42705;50.326;18.772;2024-01-25T13:04:01;6.20;;;1.70;;
56824;SDS011;42705;50.326;18.772;2024-01-25T13:09:23;7.60;;;1.70;;
56824;SDS011;42705;50.326;18.772;2024-01-25T13:14:45;5.50;;;1.30;;
56824;SDS011;42705;50.326;18.772;2024-01-25T13:20:08;4.90;;;1.20;;
56824;SDS011;42705;50.326;18.772;2024-01-25T13:25:31;6.90;;;1.70;;
56824;SDS011;42705;50.326;18.772;2024-01-25T13:30:53;5.30;;;1.20;;
56824;SDS011;42705;50.326;18.772;2024-01-25T13:36:15;7.50;;;1.20;;
56824;SDS011;42705;50.326;18.772;2024-01-25T13:41:37;7.20;;;1.20;;
56824;SDS011;42705;50.326;18.772;2024-01-25T13:46:59;5.50;;;1.00;;
56824;SDS011;42705;50.326;18.772;2024-01-25T13:52:23;7.60;;;1.40;;
56824;SDS011;42705;50.326;18.772;2024-01-25T13:57:45;6.50;;;1.20;;
56824;SDS011;42705;50.326;18.772;2024-01-25T14:03:07;8.30;;;2.00;;
56824;SDS011;42705;50.326;18.772;2024-01-25T14:08:29;3.10;;;1.10;;
56824;SDS011;42705;50.326;18.772;2024-01-25T14:13:51;8.20;;;2.00;;
56824;SDS011;42705;50.326;18.772;2024-01-25T14:19:13;7.00;;;1.70;;
56824;SDS011;42705;50.326;18.772;2024-01-25T14:24:35;8.50;;;1.50;;
56824;SDS011;42705;50.326;18.772;2024-01-25T14:29:57;6.10;;;1.30;;
56824;SDS011;42705;50.326;18.772;2024-01-25T14:35:19;12.10;;;1.60;;
56824;SDS011;42705;50.326;18.772;2024-01-25T14:40:40;11.00;;;1.50;;
56824;SDS011;42705;50.326;18.772;2024-01-25T14:46:04;8.80;;;2.00;;
56824;SDS011;42705;50.326;18.772;2024-01-25T14:51:27;9.30;;;1.60;;
56824;SDS011;42705;50.326;18.772;2024-01-25T14:56:51;10.00;;;2.10;;
56824;SDS011;42705;50.326;18.772;2024-01-25T15:02:13;7.30;;;1.70;;
56824;SDS011;42705;50.326;18.772;2024-01-25T15:07:35;7.80;;;1.50;;
56824;SDS011;42705;50.326;18.772;2024-01-25T15:12:57;6.20;;;1.50;;
56824;SDS011;42705;50.326;18.772;2024-01-25T15:18:20;9.90;;;1.90;;
56824;SDS011;42705;50.326;18.772;2024-01-25T15:23:43;6.40;;;1.30;;
56824;SDS011;42705;50.326;18.772;2024-01-25T15:29:05;7.70;;;1.90;;
56824;SDS011;42705;50.326;18.772;2024-01-25T15:34:27;5.30;;;1.60;;
56824;SDS011;42705;50.326;18.772;2024-01-25T15:39:49;8.20;;;1.40;;
56824;SDS011;42705;50.326;18.772;2024-01-25T15:45:11;9.60;;;1.60;;
56824;SDS011;42705;50.326;18.772;2024-01-25T15:50:33;9.60;;;1.50;;
56824;SDS011;42705;50.326;18.772;2024-01-25T15:55:55;8.10;;;1.70;;
56824;SDS011;42705;50.326;18.772;2024-01-25T16:01:19;10.00;;;1.70;;
56824;SDS011;42705;50.326;18.772;2024-01-25T16:06:41;7.50;;;1.70;;
56824;SDS011;42705;50.326;18.772;2024-01-25T16:12:03;6.90;;;1.20;;
56824;SDS011;42705;50.326;18.772;2024-01-25T16:17:29;6.80;;;1.10;;
56824;SDS011;42705;50.326;18.772;2024-01-25T16:22:51;9.90;;;1.90;;
56824;SDS011;42705;50.326;18.772;2024-01-25T16:28:13;5.70;;;1.20;;
56824;SDS011;42705;50.326;18.772;2024-01-25T16:33:34;9.30;;;1.50;;
56824;SDS011;42705;50.326;18.772;2024-01-25T16:38:56;7.30;;;1.40;;
56824;SDS011;42705;50.326;18.772;2024-01-25T16:44:18;9.90;;;1.80;;
56824;SDS011;42705;50.326;18.772;2024-01-25T16:49:40;11.60;;;2.20;;
56824;SDS011;42705;50.326;18.772;2024-01-25T16:55:02;14.60;;;1.80;;
56824;SDS011;42705;50.326;18.772;2024-01-25T17:00:25;10.20;;;2.20;;
56824;SDS011;42705;50.326;18.772;2024-01-25T17:05:50;7.70;;;1.80;;
56824;SDS011;42705;50.326;18.772;2024-01-25T17:11:12;6.50;;;1.80;;
56824;SDS011;42705;50.326;18.772;2024-01-25T17:16:33;7.80;;;2.00;;
56824;SDS011;42705;50.326;18.772;2024-01-25T17:21:56;12.80;;;2.80;;
56824;SDS011;42705;50.326;18.772;2024-01-25T17:27:18;10.50;;;1.80;;
56824;SDS011;42705;50.326;18.772;2024-01-25T17:32:40;9.20;;;2.20;;
56824;SDS011;42705;50.326;18.772;2024-01-25T17:38:02;13.30;;;2.70;;
56824;SDS011;42705;50.326;18.772;2024-01-25T17:43:24;9.20;;;2.00;;
56824;SDS011;42705;50.326;18.772;2024-01-25T17:48:46;8.40;;;3.00;;
56824;SDS011;42705;50.326;18.772;2024-01-25T17:54:09;10.70;;;2.10;;
56824;SDS011;42705;50.326;18.772;2024-01-25T17:59:32;10.80;;;2.20;;
56824;SDS011;42705;50.326;18.772;2024-01-25T18:04:54;17.80;;;3.30;;
56824;SDS011;42705;50.326;18.772;2024-01-25T18:10:17;6.60;;;1.80;;
56824;SDS011;42705;50.326;18.772;2024-01-25T18:15:39;8.70;;;2.00;;
56824;SDS011;42705;50.326;18.772;2024-01-25T18:21:01;7.30;;;2.00;;
56824;SDS011;42705;50.326;18.772;2024-01-25T18:26:24;8.70;;;2.20;;
56824;SDS011;42705;50.326;18.772;2024-01-25T18:31:46;17.00;;;2.70;;
56824;SDS011;42705;50.326;18.772;2024-01-25T18:37:08;10.00;;;1.80;;
56824;SDS011;42705;50.326;18.772;2024-01-25T18:42:30;11.20;;;2.20;;
56824;SDS011;42705;50.326;18.772;2024-01-25T18:47:52;11.40;;;2.80;;
56824;SDS011;42705;50.326;18.772;2024-01-25T18:53:14;15.40;;;2.50;;
56824;SDS011;42705;50.326;18.772;2024-01-25T18:58:36;11.70;;;2.20;;
56824;SDS011;42705;50.326;18.772;2024-01-25T19:03:58;7.60;;;2.00;;
56824;SDS011;42705;50.326;18.772;2024-01-25T19:09:21;15.40;;;2.60;;
56824;SDS011;42705;50.326;18.772;2024-01-25T19:14:45;12.10;;;2.70;;
56824;SDS011;42705;50.326;18.772;2024-01-25T19:20:08;18.10;;;3.30;;
56824;SDS011;42705;50.326;18.772;2024-01-25T19:25:31;17.50;;;3.50;;
56824;SDS011;42705;50.326;18.772;2024-01-25T19:30:55;18.30;;;3.30;;
56824;SDS011;42705;50.326;18.772;2024-01-25T19:36:17;14.10;;;3.10;;
56824;SDS011;42705;50.326;18.772;2024-01-25T19:41:39;10.00;;;2.60;;
56824;SDS011;42705;50.326;18.772;2024-01-25T19:47:01;13.30;;;2.70;;
56824;SDS011;42705;50.326;18.772;2024-01-25T19:52:24;12.00;;;2.50;;
56824;SDS011;42705;50.326;18.772;2024-01-25T19:57:47;11.90;;;2.70;;
56824;SDS011;42705;50.326;18.772;2024-01-25T20:03:10;14.30;;;3.40;;
56824;SDS011;42705;50.326;18.772;2024-01-25T20:08:33;12.30;;;3.20;;
56824;SDS011;42705;50.326;18.772;2024-01-25T20:13:55;16.50;;;2.80;;
56824;SDS011;42705;50.326;18.772;2024-01-25T20:19:18;11.90;;;3.20;;
56824;SDS011;42705;50.326;18.772;2024-01-25T20:24:40;13.10;;;4.00;;
56824;SDS011;42705;50.326;18.772;2024-01-25T20:30:02;20.10;;;3.40;;
56824;SDS011;42705;50.326;18.772;2024-01-25T20:35:25;12.30;;;4.00;;
56824;SDS011;42705;50.326;18.772;2024-01-25T20:40:47;13.20;;;3.50;;
56824;SDS011;42705;50.326;18.772;2024-01-25T20:46:09;9.70;;;2.80;;
56824;SDS011;42705;50.326;18.772;2024-01-25T20:51:32;12.40;;;3.30;;
56824;SDS011;42705;50.326;18.772;2024-01-25T20:56:56;11.70;;;3.20;;
56824;SDS011;42705;50.326;18.772;2024-01-25T21:02:18;10.30;;;2.10;;
56824;SDS011;42705;50.326;18.772;2024-01-25T21:07:40;16.10;;;3.80;;
56824;SDS011;42705;50.326;18.772;2024-01-25T21:13:03;12.10;;;2.70;;
56824;SDS011;42705;50.326;18.772;2024-01-25T21:18:25;13.00;;;3.20;;
56824;SDS011;42705;50.326;18.772;2024-01-25T21:23:47;12.50;;;3.00;;
56824;SDS011;42705;50.326;18.772;2024-01-25T21:29:09;14.20;;;2.60;;
56824;SDS011;42705;50.326;18.772;2024-01-25T21:34:31;9.60;;;2.40;;
56824;SDS011;42705;50.326;18.772;2024-01-25T21:39:53;11.50;;;2.90;;
56824;SDS011;42705;50.326;18.772;2024-01-25T21:45:14;10.90;;;2.30;;
56824;SDS011;42705;50.326;18.772;2024-01-25T21:50:37;11.10;;;2.30;;
56824;SDS011;42705;50.326;18.772;2024-01-25T21:55:59;13.40;;;2.70;;
56824;SDS011;42705;50.326;18.772;2024-01-25T22:01:22;12.90;;;2.70;;
56824;SDS011;42705;50.326;18.772;2024-01-25T22:06:44;12.30;;;3.80;;
56824;SDS011;42705;50.326;18.772;2024-01-25T22:12:06;16.50;;;3.10;;
56824;SDS011;42705;50.326;18.772;2024-01-25T22:17:28;14.50;;;2.80;;
56824;SDS011;42705;50.326;18.772;2024-01-25T22:22:51;8.80;;;2.50;;
56824;SDS011;42705;50.326;18.772;2024-01-25T22:28:13;20.20;;;3.30;;
56824;SDS011;42705;50.326;18.772;2024-01-25T22:33:36;13.50;;;2.60;;
56824;SDS011;42705;50.326;18.772;2024-01-25T22:38:57;10.30;;;2.30;;
56824;SDS011;42705;50.326;18.772;2024-01-25T22:44:19;12.00;;;2.70;;
56824;SDS011;42705;50.326;18.772;2024-01-25T22:49:42;8.70;;;2.40;;
56824;SDS011;42705;50.326;18.772;2024-01-25T22:55:04;8.50;;;2.60;;
56824;SDS011;42705;50.326;18.772;2024-01-25T23:00:26;7.80;;;1.80;;
56824;SDS011;42705;50.326;18.772;2024-01-25T23:05:51;12.40;;;2.40;;
56824;SDS011;42705;50.326;18.772;2024-01-25T23:11:13;10.70;;;3.10;;
56824;SDS011;42705;50.326;18.772;2024-01-25T23:16:35;10.10;;;2.90;;
56824;SDS011;42705;50.326;18.772;2024-01-25T23:21:57;15.30;;;3.30;;
56824;SDS011;42705;50.326;18.772;2024-01-25T23:27:18;18.50;;;3.30;;
56824;SDS011;42705;50.326;18.772;2024-01-25T23:32:40;16.20;;;3.30;;
56824;SDS011;42705;50.326;18.772;2024-01-25T23:38:02;14.90;;;3.30;;
56824;SDS011;42705;50.326;18.772;2024-01-25T23:43:24;8.10;;;2.30;;
56824;SDS011;42705;50.326;18.772;2024-01-25T23:48:47;13.00;;;2.70;;
56824;SDS011;42705;50.326;18.772;2024-01-25T23:54:09;12.70;;;3.40;;
56824;SDS011;42705;50.326;18.772;2024-01-25T23:59:31;10.00;;;2.40;;
